Time;durP1;ratioP1;P1;durP2;ratioP2;P2;SDS_P1;SDS_P2;PMS_P1;PMS_P2;Temp;Humidity;BMP_temperature;BMP_pressure;BME280_temperature;BME280_humidity;BME280_pressure;Samples;Min_cycle;Max_cycle;Signal;HPM_P1;HPM_P2
2023/10/28 00:02:16;;;;;;;0.30;0.30;;;;;;;10.13;83.77;95786.44;5064842;28;20610;-73
2023/10/28 00:04:44;;;;;;;0.30;0.30;;;;;;;10.10;83.98;95786.88;5064549;28;20079;-76
2023/10/28 00:07:13;;;;;;;0.20;0.20;;;;;;;10.05;84.37;95778.00;5065717;28;20048;-74
2023/10/28 00:09:41;;;;;;;0.30;0.30;;;;;;;10.05;84.64;95786.00;5061290;28;20040;-73
2023/10/28 00:12:09;;;;;;;0.50;0.40;;;;;;;10.08;84.45;95788.16;5063138;28;20048;-73
2023/10/28 00:14:37;;;;;;;0.30;0.30;;;;;;;10.06;84.71;95783.09;5059821;28;20080;-75
2023/10/28 00:17:04;;;;;;;0.35;0.35;;;;;;;10.03;84.75;95780.91;5064085;28;20050;-75
2023/10/28 00:19:32;;;;;;;0.30;0.30;;;;;;;10.02;84.80;95781.13;5067445;28;20044;-73
2023/10/28 00:22:00;;;;;;;0.35;0.35;;;;;;;10.00;84.96;95778.69;5066355;28;20564;-72
2023/10/28 00:24:29;;;;;;;0.50;0.50;;;;;;;10.03;85.20;95780.09;5063939;28;20063;-73
2023/10/28 00:26:57;;;;;;;0.32;0.32;;;;;;;10.01;85.01;95779.50;5066114;28;20053;-75
2023/10/28 00:29:24;;;;;;;0.30;0.30;;;;;;;9.96;84.91;95776.75;5063791;28;20139;-72
2023/10/28 00:31:52;;;;;;;0.40;0.30;;;;;;;9.93;84.78;95772.69;5063510;28;21229;-73
2023/10/28 00:34:21;;;;;;;0.38;0.38;;;;;;;9.89;85.06;95775.00;5063623;28;20052;-74
2023/10/28 00:36:48;;;;;;;0.30;0.30;;;;;;;9.90;85.37;95773.97;5065132;28;20507;-71
2023/10/28 00:39:16;;;;;;;0.28;0.28;;;;;;;9.94;85.16;95776.97;5069427;28;20036;-72
2023/10/28 00:41:47;;;;;;;1.02;0.60;;;;;;;9.89;85.38;95774.19;5056152;28;20048;-72
2023/10/28 00:44:15;;;;;;;0.30;0.30;;;;;;;9.90;85.21;95776.63;5059804;28;20037;-74
2023/10/28 00:46:43;;;;;;;0.70;0.70;;;;;;;9.93;85.42;95776.16;5061153;28;21489;-74
2023/10/28 00:49:12;;;;;;;0.30;0.30;;;;;;;9.93;85.37;95775.34;5062601;28;20075;-72
2023/10/28 00:51:41;;;;;;;0.30;0.30;;;;;;;9.93;85.17;95780.69;5063634;28;20078;-73
2023/10/28 00:54:09;;;;;;;1.15;0.40;;;;;;;9.90;85.34;95767.81;5066120;28;20051;-74
2023/10/28 00:56:37;;;;;;;0.40;0.30;;;;;;;9.93;85.51;95776.16;5062690;28;20487;-71
2023/10/28 00:59:06;;;;;;;0.30;0.30;;;;;;;9.96;85.33;95782.88;5064185;28;20048;-73
2023/10/28 01:01:34;;;;;;;0.30;0.30;;;;;;;10.01;85.01;95776.84;5061307;28;20483;-73
2023/10/28 01:04:04;;;;;;;0.30;0.30;;;;;;;10.00;85.10;95776.03;5059190;28;20055;-73
2023/10/28 01:06:31;;;;;;;0.32;0.32;;;;;;;10.00;85.33;95785.88;5065400;28;20068;-70
2023/10/28 01:08:59;;;;;;;0.30;0.30;;;;;;;10.00;85.58;95788.53;5066850;28;20090;-71
2023/10/28 01:11:27;;;;;;;0.30;0.30;;;;;;;10.02;85.47;95787.28;5061806;28;20037;-71
2023/10/28 01:13:55;;;;;;;0.30;0.30;;;;;;;10.02;85.52;95789.94;5059833;28;20139;-71
2023/10/28 01:16:26;;;;;;;0.20;0.20;;;;;;;10.06;85.78;95788.44;5061547;28;20045;-73
2023/10/28 01:18:55;;;;;;;0.32;0.32;;;;;;;10.14;85.85;95788.06;5065700;28;20048;-71
2023/10/28 01:21:24;;;;;;;0.40;0.40;;;;;;;10.12;85.42;95790.13;5066457;28;20113;-73
2023/10/28 01:23:52;;;;;;;0.28;0.28;;;;;;;10.11;85.30;95790.38;5065036;28;20068;-73
2023/10/28 01:26:20;;;;;;;0.40;0.40;;;;;;;10.11;85.43;95783.19;5060923;28;20655;-71
2023/10/28 01:28:51;;;;;;;0.30;0.30;;;;;;;10.11;85.50;95785.03;5062392;28;20634;-71
2023/10/28 01:31:18;;;;;;;0.38;0.38;;;;;;;10.13;85.64;95785.63;5059994;28;20083;-76
2023/10/28 01:33:46;;;;;;;0.35;0.35;;;;;;;10.13;85.48;95781.09;5063603;28;20043;-72
2023/10/28 01:36:15;;;;;;;0.30;0.30;;;;;;;10.09;85.74;95774.59;5066565;28;20514;-74
2023/10/28 01:38:44;;;;;;;0.38;0.38;;;;;;;10.09;85.97;95782.59;5061613;28;20568;-74
2023/10/28 01:41:13;;;;;;;0.20;0.20;;;;;;;10.06;85.96;95775.09;5064580;28;20561;-74
2023/10/28 01:43:44;;;;;;;0.20;0.20;;;;;;;10.03;86.66;95774.75;5061936;28;20036;-74
2023/10/28 01:46:12;;;;;;;0.30;0.30;;;;;;;10.00;86.81;95772.56;5061738;28;20049;-74
2023/10/28 01:48:41;;;;;;;0.35;0.30;;;;;;;10.00;86.81;95769.88;5061109;28;20058;-75
2023/10/28 01:51:10;;;;;;;0.32;0.32;;;;;;;10.00;86.73;95773.38;5062669;28;20064;-79
2023/10/28 01:53:38;;;;;;;0.20;0.20;;;;;;;10.01;87.29;95768.84;5062676;28;20040;-77
2023/10/28 01:56:07;;;;;;;0.32;0.32;;;;;;;10.06;87.17;95780.44;5062953;28;20400;-74
2023/10/28 01:58:35;;;;;;;0.30;0.30;;;;;;;10.01;87.10;95779.50;5064330;28;20405;-74
2023/10/28 02:01:03;;;;;;;0.30;0.30;;;;;;;10.03;87.43;95770.22;5062379;28;20492;-74
2023/10/28 02:03:32;;;;;;;0.30;0.30;;;;;;;10.01;87.80;95772.31;5059213;28;20137;-71
2023/10/28 02:06:00;;;;;;;0.25;0.25;;;;;;;10.01;87.89;95767.00;5064114;28;20068;-72
2023/10/28 02:08:27;;;;;;;0.30;0.30;;;;;;;9.96;88.58;95774.09;5063502;28;20137;-72
2023/10/28 02:10:55;;;;;;;0.35;0.35;;;;;;;9.98;88.88;95774.63;5062241;28;20048;-75
2023/10/28 02:13:24;;;;;;;0.20;0.20;;;;;;;9.90;89.51;95775.81;5064309;28;20063;-74
2023/10/28 02:15:52;;;;;;;0.30;0.30;;;;;;;9.89;90.04;95780.34;5058402;28;20087;-73
2023/10/28 02:18:22;;;;;;;0.40;0.40;;;;;;;9.87;90.41;95774.44;5065330;28;20041;-74
2023/10/28 02:20:50;;;;;;;0.20;0.20;;;;;;;9.85;90.69;95781.06;5063389;28;20123;-75
2023/10/28 02:23:18;;;;;;;0.80;0.80;;;;;;;9.83;90.81;95783.97;5063700;28;20188;-76
2023/10/28 02:25:45;;;;;;;0.20;0.20;;;;;;;9.83;91.27;95783.97;5058674;28;20047;-74
2023/10/28 02:28:14;;;;;;;0.30;0.30;;;;;;;9.84;91.14;95790.09;5062479;28;20036;-73
2023/10/28 02:30:43;;;;;;;0.15;0.15;;;;;;;9.85;91.15;95791.72;5059956;28;20032;-74
2023/10/28 02:33:10;;;;;;;0.30;0.30;;;;;;;9.87;90.54;95790.41;5063134;28;20044;-73
2023/10/28 02:35:38;;;;;;;0.20;0.20;;;;;;;9.87;90.24;95798.41;5062364;28;20071;-73
2023/10/28 02:38:06;;;;;;;0.40;0.40;;;;;;;9.92;90.04;95797.72;5060833;28;20076;-76
2023/10/28 02:40:34;;;;;;;0.30;0.30;;;;;;;9.93;89.44;95792.16;5063992;28;20045;-73
2023/10/28 02:43:01;;;;;;;0.32;0.32;;;;;;;9.93;89.65;95799.34;5081800;22;20049;-72
2023/10/28 02:45:29;;;;;;;0.80;0.80;;;;;;;9.92;89.71;95801.19;5041462;28;20412;-72
2023/10/28 02:47:58;;;;;;;0.57;0.57;;;;;;;9.97;89.30;95800.47;5024576;28;20080;-72
2023/10/28 02:50:26;;;;;;;0.40;0.30;;;;;;;9.97;89.37;95802.34;5042010;28;20077;-72
2023/10/28 02:52:53;;;;;;;0.35;0.35;;;;;;;9.99;89.28;95810.91;5038701;28;20119;-72
2023/10/28 02:55:21;;;;;;;0.73;0.73;;;;;;;9.96;89.21;95811.41;5043231;28;20251;-72
2023/10/28 02:57:49;;;;;;;0.45;0.43;;;;;;;9.96;89.53;95803.41;5043035;28;20492;-72
2023/10/28 03:00:17;;;;;;;0.40;0.30;;;;;;;9.95;89.64;95813.25;5022280;28;20550;-73
2023/10/28 03:02:45;;;;;;;0.30;0.30;;;;;;;9.96;89.70;95809.53;5044330;28;20127;-73
2023/10/28 03:05:14;;;;;;;0.30;0.30;;;;;;;9.96;89.74;95808.72;5046129;28;20041;-72
2023/10/28 03:07:42;;;;;;;0.35;0.35;;;;;;;9.94;89.83;95807.09;5034728;28;20049;-73
2023/10/28 03:10:10;;;;;;;0.40;0.40;;;;;;;9.96;89.48;95809.53;5053722;28;20099;-73
2023/10/28 03:12:38;;;;;;;0.20;0.20;;;;;;;9.93;89.24;95802.81;5045036;28;20033;-71
2023/10/28 03:15:08;;;;;;;0.28;0.22;;;;;;;9.96;89.07;95806.88;5046084;28;20044;-72
2023/10/28 03:17:36;;;;;;;0.20;0.20;;;;;;;9.94;89.15;95806.28;5022860;28;20053;-72
2023/10/28 03:20:05;;;;;;;0.50;0.50;;;;;;;9.98;88.83;95803.94;5041733;28;20051;-71
2023/10/28 03:22:34;;;;;;;0.70;0.70;;;;;;;9.97;87.91;95805.81;5042023;28;20217;-73
2023/10/28 03:25:03;;;;;;;0.30;0.30;;;;;;;9.95;87.44;95805.25;5040756;28;20050;-72
2023/10/28 03:27:31;;;;;;;0.30;0.30;;;;;;;9.96;87.54;95806.06;5044561;28;20029;-72
2023/10/28 03:29:59;;;;;;;0.30;0.30;;;;;;;9.98;87.19;95812.75;5026857;28;20042;-72
2023/10/28 03:32:27;;;;;;;0.20;0.20;;;;;;;9.96;87.33;95811.41;5039896;28;20056;-72
2023/10/28 03:34:54;;;;;;;0.28;0.28;;;;;;;9.94;87.59;95809.78;5041027;28;20454;-72
2023/10/28 03:37:23;;;;;;;0.32;0.30;;;;;;;9.94;87.77;95814.28;5043806;28;20080;-72
2023/10/28 03:39:52;;;;;;;0.28;0.28;;;;;;;9.93;87.52;95810.00;5043899;28;20595;-72
2023/10/28 03:42:20;;;;;;;0.30;0.30;;;;;;;10.01;87.18;95811.47;5039919;28;20472;-72
2023/10/28 03:44:47;;;;;;;0.30;0.30;;;;;;;9.94;87.53;95812.44;5042432;28;20045;-72
2023/10/28 03:47:15;;;;;;;0.32;0.32;;;;;;;9.92;87.41;95819.03;5041511;28;20567;-73
2023/10/28 03:49:43;;;;;;;0.20;0.20;;;;;;;9.91;87.09;95818.22;5042290;28;20041;-71
2023/10/28 03:52:11;;;;;;;0.13;0.13;;;;;;;9.92;87.71;95819.84;5041043;28;20048;-72
2023/10/28 03:54:39;;;;;;;0.30;0.30;;;;;;;9.89;87.42;95816.84;5041590;28;20048;-72
2023/10/28 03:57:09;;;;;;;0.40;0.40;;;;;;;9.90;87.56;95813.13;5041715;28;20403;-72
2023/10/28 03:59:36;;;;;;;0.20;0.20;;;;;;;9.89;87.20;95817.66;5045846;28;20530;-72
2023/10/28 04:02:04;;;;;;;0.30;0.30;;;;;;;9.89;87.52;95824.81;5041332;28;20045;-72
2023/10/28 04:04:32;;;;;;;0.20;0.20;;;;;;;9.90;87.59;95829.13;5045238;28;20415;-72
2023/10/28 04:07:00;;;;;;;0.40;0.30;;;;;;;9.86;87.68;95822.66;5019934;28;20067;-72
2023/10/28 04:09:27;;;;;;;0.70;0.70;;;;;;;9.85;87.70;95816.50;5041242;28;20456;-72
2023/10/28 04:11:55;;;;;;;0.20;0.20;;;;;;;9.88;87.34;95820.53;5031720;28;20044;-71
2023/10/28 04:14:24;;;;;;;0.22;0.22;;;;;;;9.88;87.86;95825.88;5043991;28;20495;-71
2023/10/28 04:16:52;;;;;;;0.17;0.17;;;;;;;9.86;88.22;95833.31;5039995;28;20132;-72
2023/10/28 04:19:19;;;;;;;0.30;0.30;;;;;;;9.85;88.27;95831.69;5045257;28;20051;-73
2023/10/28 04:21:47;;;;;;;0.28;0.28;;;;;;;9.80;88.75;95831.56;5043304;28;20041;-73
2023/10/28 04:24:15;;;;;;;0.30;0.30;;;;;;;9.81;88.72;95831.34;5044513;28;20041;-72
2023/10/28 04:26:42;;;;;;;0.22;0.22;;;;;;;9.78;89.10;95833.63;5043734;28;20044;-72
2023/10/28 04:29:10;;;;;;;0.30;0.30;;;;;;;9.74;88.72;95828.00;5036883;28;20577;-72
2023/10/28 04:31:39;;;;;;;0.15;0.15;;;;;;;9.73;88.92;95830.88;5041328;28;20044;-73
2023/10/28 04:34:10;;;;;;;0.20;0.20;;;;;;;9.72;89.22;95837.25;5045979;28;20496;-73
2023/10/28 04:36:38;;;;;;;0.30;0.30;;;;;;;9.72;89.39;95838.06;5047865;28;20570;-72
2023/10/28 04:39:05;;;;;;;0.38;0.38;;;;;;;9.72;89.33;95840.72;5049353;28;20044;-72
2023/10/28 04:41:33;;;;;;;0.30;0.30;;;;;;;9.74;89.55;95835.97;5047721;28;20056;-72
2023/10/28 04:44:01;;;;;;;0.22;0.22;;;;;;;9.70;90.03;95832.16;5047342;28;20124;-71
2023/10/28 04:46:30;;;;;;;0.22;0.22;;;;;;;9.66;90.42;95843.50;5030622;28;20140;-71
2023/10/28 04:49:00;;;;;;;0.22;0.22;;;;;;;9.62;90.68;95843.16;5046310;28;20056;-71
2023/10/28 04:51:28;;;;;;;0.30;0.30;;;;;;;9.58;90.87;95842.00;5044078;28;20045;-71
2023/10/28 04:53:56;;;;;;;0.45;0.45;;;;;;;9.62;90.95;95843.16;5047513;28;20053;-71
2023/10/28 04:56:23;;;;;;;0.20;0.20;;;;;;;9.57;91.33;95841.19;5045056;28;20142;-71
2023/10/28 04:58:51;;;;;;;0.80;0.80;;;;;;;9.57;91.09;95835.84;5041228;28;20407;-72
2023/10/28 05:01:19;;;;;;;0.30;0.30;;;;;;;9.62;91.20;95842.34;5047559;28;20526;-72
2023/10/28 05:03:49;;;;;;;0.30;0.30;;;;;;;9.62;91.23;95840.50;5046136;28;20041;-73
2023/10/28 05:06:20;;;;;;;0.20;0.20;;;;;;;9.57;91.37;95840.38;5051300;28;20041;-73
2023/10/28 05:08:48;;;;;;;0.10;0.10;;;;;;;9.54;91.47;95843.50;5050072;28;20086;-73
2023/10/28 05:11:16;;;;;;;0.22;0.22;;;;;;;9.54;91.58;95846.19;5037866;28;20110;-72
2023/10/28 05:13:44;;;;;;;0.20;0.20;;;;;;;9.56;91.38;95849.41;5048396;28;20467;-73
2023/10/28 05:16:11;;;;;;;0.20;0.20;;;;;;;9.52;91.31;95849.06;5046753;28;20041;-72
2023/10/28 05:18:39;;;;;;;0.20;0.20;;;;;;;9.53;91.45;95855.19;5049075;28;20124;-72
2023/10/28 05:21:08;;;;;;;0.35;0.35;;;;;;;9.55;91.51;95850.47;5042571;28;20053;-72
2023/10/28 05:23:37;;;;;;;0.30;0.30;;;;;;;9.54;91.07;95847.00;5042460;28;20092;-72
2023/10/28 05:26:06;;;;;;;0.32;0.32;;;;;;;9.54;91.12;95854.16;5044497;28;20054;-72
2023/10/28 05:28:34;;;;;;;0.15;0.15;;;;;;;9.53;91.34;95855.19;5047068;28;20075;-73
2023/10/28 05:31:03;;;;;;;0.10;0.10;;;;;;;9.52;91.53;95859.72;5040731;28;20059;-71
2023/10/28 05:33:30;;;;;;;0.20;0.20;;;;;;;9.52;91.24;95859.72;5046147;28;20048;-72
2023/10/28 05:35:58;;;;;;;0.45;0.45;;;;;;;9.54;91.27;95862.16;5041404;28;20404;-71
2023/10/28 05:38:26;;;;;;;0.20;0.20;;;;;;;9.54;90.96;95862.97;5044286;28;20096;-72
2023/10/28 05:40:55;;;;;;;0.32;0.32;;;;;;;9.63;90.34;95871.41;5048085;28;20055;-71
2023/10/28 05:43:23;;;;;;;0.20;0.20;;;;;;;9.56;90.42;95873.38;5042554;28;20069;-71
2023/10/28 05:45:51;;;;;;;0.30;0.30;;;;;;;9.55;90.28;95869.09;5042138;28;20045;-72
2023/10/28 05:48:19;;;;;;;0.20;0.20;;;;;;;9.58;89.87;95871.28;5046250;28;20041;-72
2023/10/28 05:50:47;;;;;;;0.13;0.13;;;;;;;9.57;89.78;95873.13;5043106;28;20129;-72
2023/10/28 05:53:15;;;;;;;0.20;0.20;;;;;;;9.57;89.89;95877.66;5046391;28;20108;-72
2023/10/28 05:55:43;;;;;;;0.30;0.30;;;;;;;9.66;89.76;95881.59;5046638;28;20049;-72
2023/10/28 05:58:12;;;;;;;0.40;0.40;;;;;;;9.63;89.43;95887.41;5042911;28;20052;-72
2023/10/28 06:00:41;;;;;;;0.10;0.10;;;;;;;9.60;89.47;95890.53;5041423;28;20456;-72
2023/10/28 06:03:09;;;;;;;0.30;0.30;;;;;;;9.62;89.56;95888.44;5040777;28;20045;-72
2023/10/28 06:05:37;;;;;;;0.20;0.20;;;;;;;9.64;89.35;95894.34;5044431;28;20056;-72
2023/10/28 06:08:08;;;;;;;0.30;0.30;;;;;;;9.65;89.31;95895.97;5026665;28;20054;-72
2023/10/28 06:10:36;;;;;;;0.20;0.20;;;;;;;9.61;89.34;95905.47;5043103;28;20496;-72
2023/10/28 06:13:03;;;;;;;0.20;0.20;;;;;;;9.59;89.64;95896.88;5041083;28;20044;-72
2023/10/28 06:15:32;;;;;;;0.20;0.20;;;;;;;9.61;89.33;95908.13;5039646;28;20164;-72
2023/10/28 06:18:00;;;;;;;0.20;0.20;;;;;;;9.61;89.29;95905.47;5043650;28;20045;-71
2023/10/28 06:20:30;;;;;;;0.20;0.20;;;;;;;9.62;89.03;95907.09;5042825;28;20072;-72
2023/10/28 06:22:58;;;;;;;0.20;0.20;;;;;;;9.63;88.74;95908.72;5033335;28;20044;-71
2023/10/28 06:25:25;;;;;;;0.30;0.30;;;;;;;9.65;88.53;95911.97;5039402;28;20641;-72
2023/10/28 06:27:53;;;;;;;0.20;0.20;;;;;;;9.65;87.89;95916.47;5040596;28;20044;-72
2023/10/28 06:30:22;;;;;;;0.20;0.20;;;;;;;9.67;87.96;95923.16;5041468;28;20348;-71
2023/10/28 06:32:51;;;;;;;0.25;0.25;;;;;;;9.71;87.47;95931.53;5045251;28;20053;-73
2023/10/28 06:35:19;;;;;;;0.20;0.20;;;;;;;9.74;86.94;95934.56;5045473;28;20056;-73
2023/10/28 06:37:46;;;;;;;0.10;0.10;;;;;;;9.75;86.54;95941.50;5042253;28;20039;-74
2023/10/28 06:40:14;;;;;;;0.10;0.10;;;;;;;9.77;86.59;95942.06;5040263;28;20071;-71
2023/10/28 06:42:42;;;;;;;0.22;0.22;;;;;;;9.79;86.39;95944.50;5040539;28;20512;-72
2023/10/28 06:45:10;;;;;;;0.30;0.30;;;;;;;9.77;85.96;95947.38;5039335;28;20063;-72
2023/10/28 06:47:38;;;;;;;0.15;0.15;;;;;;;9.77;85.99;95950.06;5024684;28;20055;-71
2023/10/28 06:50:08;;;;;;;0.25;0.25;;;;;;;9.80;86.05;95949.59;5046490;28;20049;-71
2023/10/28 06:52:37;;;;;;;0.28;0.28;;;;;;;9.82;86.26;95952.03;5042249;28;20300;-71
2023/10/28 06:55:05;;;;;;;0.20;0.20;;;;;;;9.83;85.42;95957.16;5026565;28;20049;-71
2023/10/28 06:57:33;;;;;;;0.20;0.20;;;;;;;9.81;85.90;95966.41;5041981;28;20041;-71
2023/10/28 07:00:00;;;;;;;0.22;0.22;;;;;;;9.81;85.79;95969.88;5045978;28;20044;-71
2023/10/28 07:02:28;;;;;;;0.20;0.20;;;;;;;9.78;85.52;95965.00;5039786;28;20049;-71
2023/10/28 07:04:56;;;;;;;0.25;0.25;;;;;;;9.81;85.90;95969.88;5045638;28;20045;-71
2023/10/28 07:07:25;;;;;;;0.28;0.20;;;;;;;9.78;85.73;95983.66;5043830;28;20040;-72
2023/10/28 07:09:53;;;;;;;0.38;0.38;;;;;;;9.81;85.70;95977.88;5046119;28;20048;-71
2023/10/28 07:12:20;;;;;;;0.17;0.17;;;;;;;9.76;85.47;95980.41;5045181;28;20037;-71
2023/10/28 07:14:48;;;;;;;0.20;0.20;;;;;;;9.78;85.75;95983.66;5043751;28;20045;-71
2023/10/28 07:17:16;;;;;;;0.20;0.20;;;;;;;9.74;85.51;95985.16;5042732;28;20046;-72
2023/10/28 07:19:43;;;;;;;0.20;0.20;;;;;;;9.78;85.39;95993.50;5041779;28;20504;-72
2023/10/28 07:22:12;;;;;;;0.30;0.30;;;;;;;9.77;84.29;95991.88;5041293;28;20064;-71
2023/10/28 07:24:41;;;;;;;0.22;0.22;;;;;;;9.77;83.61;95990.03;5044318;28;20040;-72
2023/10/28 07:27:08;;;;;;;0.22;0.22;;;;;;;9.82;82.80;95995.50;5045778;28;20049;-71
2023/10/28 07:29:36;;;;;;;0.20;0.20;;;;;;;9.84;82.83;96003.25;5043139;28;20489;-72
2023/10/28 07:32:04;;;;;;;0.28;0.28;;;;;;;9.89;83.14;96004.19;5040057;28;20041;-72
2023/10/28 07:34:32;;;;;;;0.20;0.20;;;;;;;9.90;83.21;96011.13;5042378;28;20037;-72
2023/10/28 07:37:00;;;;;;;0.38;0.38;;;;;;;9.91;82.45;96015.44;5039108;28;20059;-74
2023/10/28 07:39:27;;;;;;;0.30;0.30;;;;;;;9.91;82.04;96025.28;5040126;28;20056;-71
2023/10/28 07:41:57;;;;;;;0.20;0.20;;;;;;;9.90;81.89;96028.97;5029790;28;20049;-72
2023/10/28 07:44:24;;;;;;;0.55;0.55;;;;;;;9.88;82.19;96026.53;5041595;28;20041;-71
2023/10/28 07:46:52;;;;;;;0.25;0.25;;;;;;;9.88;81.74;96033.72;5041626;28;20090;-71
2023/10/28 07:49:20;;;;;;;0.25;0.25;;;;;;;9.90;81.61;96035.13;5023761;28;20064;-72
2023/10/28 07:51:48;;;;;;;0.30;0.30;;;;;;;9.93;82.00;96032.00;5042504;28;20038;-74
2023/10/28 07:54:15;;;;;;;0.30;0.30;;;;;;;9.97;81.96;96036.88;5044864;28;20123;-72
2023/10/28 07:56:43;;;;;;;0.25;0.25;;;;;;;10.01;81.82;96040.69;5040712;28;20040;-73
2023/10/28 07:59:12;;;;;;;0.35;0.35;;;;;;;10.05;81.75;96042.69;5017377;28;20149;-71
2023/10/28 08:01:41;;;;;;;0.30;0.30;;;;;;;10.05;81.21;96045.34;5044828;28;20100;-72
2023/10/28 08:04:08;;;;;;;0.20;0.20;;;;;;;10.08;81.18;96046.72;5049129;28;20073;-74
2023/10/28 08:06:36;;;;;;;0.40;0.40;;;;;;;10.12;81.18;96051.38;5046834;28;20102;-72
2023/10/28 08:09:05;;;;;;;0.32;0.32;;;;;;;10.16;80.90;96046.41;5045860;28;20033;-73
2023/10/28 08:11:34;;;;;;;0.20;0.20;;;;;;;10.22;80.03;96053.50;5047073;28;20029;-72
2023/10/28 08:14:03;;;;;;;0.20;0.20;;;;;;;10.24;80.39;96060.25;5046463;28;20060;-72
2023/10/28 08:16:34;;;;;;;0.43;0.43;;;;;;;10.23;79.93;96066.63;5046332;28;20112;-72
2023/10/28 08:19:03;;;;;;;0.10;0.10;;;;;;;10.23;80.50;96073.81;5027336;28;20579;-72
2023/10/28 08:21:31;;;;;;;0.35;0.35;;;;;;;10.25;80.95;96075.22;5049257;28;20044;-72
2023/10/28 08:24:00;;;;;;;0.20;0.20;;;;;;;10.24;80.55;96070.91;5048384;28;20045;-72
2023/10/28 08:26:27;;;;;;;0.40;0.40;;;;;;;10.22;81.07;96073.00;5047642;28;20120;-72
2023/10/28 08:28:55;;;;;;;0.30;0.30;;;;;;;10.25;80.83;96075.22;5040553;28;20060;-72
2023/10/28 08:31:23;;;;;;;0.40;0.40;;;;;;;10.25;81.56;96079.72;5038430;28;20069;-72
2023/10/28 08:33:52;;;;;;;0.40;0.40;;;;;;;10.33;81.31;96081.22;5045462;28;20045;-73
2023/10/28 08:36:20;;;;;;;0.43;0.40;;;;;;;10.39;80.81;96077.63;5046699;28;20123;-72
2023/10/28 08:38:48;;;;;;;0.30;0.30;;;;;;;10.34;80.52;96073.00;5049158;28;20037;-72
2023/10/28 08:41:21;;;;;;;0.55;0.55;;;;;;;10.34;81.04;96091.69;5043802;28;20658;-72
2023/10/28 08:43:50;;;;;;;0.30;0.30;;;;;;;10.39;81.76;96085.63;5046821;28;20052;-74
2023/10/28 08:46:18;;;;;;;0.30;0.30;;;;;;;10.31;82.24;96086.78;5042057;28;20047;-74
2023/10/28 08:48:46;;;;;;;0.30;0.30;;;;;;;10.28;82.91;96087.25;5045885;28;20049;-73
2023/10/28 08:51:16;;;;;;;0.20;0.20;;;;;;;10.26;83.63;96097.34;5050694;28;20542;-74
2023/10/28 08:53:46;;;;;;;0.20;0.20;;;;;;;10.28;83.75;96104.06;5043832;28;20048;-73
2023/10/28 08:56:17;;;;;;;0.30;0.30;;;;;;;10.25;84.33;96101.88;5047698;28;20072;-73
2023/10/28 08:58:48;;;;;;;0.22;0.22;;;;;;;10.26;84.54;96098.16;5041599;28;20535;-73
2023/10/28 09:01:19;;;;;;;0.20;0.20;;;;;;;10.28;84.45;96105.91;5040526;28;20049;-73
2023/10/28 09:03:48;;;;;;;0.40;0.30;;;;;;;10.34;84.16;96107.66;5048719;28;20136;-74
2023/10/28 09:06:19;;;;;;;0.30;0.30;;;;;;;10.43;83.16;96116.16;5041665;28;20506;-74
2023/10/28 09:08:48;;;;;;;0.30;0.30;;;;;;;10.46;83.34;96110.38;5048378;28;20048;-73
2023/10/28 09:11:16;;;;;;;0.30;0.30;;;;;;;10.43;82.15;96122.28;5044985;28;20045;-73
2023/10/28 09:13:45;;;;;;;0.10;0.10;;;;;;;10.39;82.88;96123.78;5047548;28;20037;-73
2023/10/28 09:16:14;;;;;;;0.20;0.20;;;;;;;10.46;83.51;96132.50;5043851;28;20068;-73
2023/10/28 09:18:43;;;;;;;0.17;0.17;;;;;;;10.46;83.07;96131.69;5044487;28;20049;-73
2023/10/28 09:21:12;;;;;;;0.30;0.30;;;;;;;10.53;82.15;96141.22;5045835;28;20095;-72
2023/10/28 09:23:42;;;;;;;0.43;0.30;;;;;;;10.55;81.59;96141.81;5048074;28;20053;-73
2023/10/28 09:26:10;;;;;;;0.10;0.10;;;;;;;10.58;82.16;96137.88;5056266;28;20052;-73
2023/10/28 09:28:44;;;;;;;0.28;0.22;;;;;;;10.60;80.36;96141.09;5056443;28;20070;-73
2023/10/28 09:31:12;;;;;;;0.52;0.52;;;;;;;10.63;80.21;96149.47;5050946;28;20045;-73
2023/10/28 09:33:40;;;;;;;0.20;0.20;;;;;;;10.70;80.36;96149.34;5047170;28;20049;-73
2023/10/28 09:36:09;;;;;;;0.30;0.30;;;;;;;10.78;80.11;96151.69;5052899;28;20041;-73
2023/10/28 09:38:37;;;;;;;0.65;0.65;;;;;;;10.86;79.29;96154.00;5049813;28;20441;-74
2023/10/28 09:41:07;;;;;;;0.25;0.25;;;;;;;10.85;79.06;96152.38;5045021;28;20055;-73
2023/10/28 09:43:37;;;;;;;0.20;0.20;;;;;;;10.93;79.24;96161.88;5015863;28;1026605;-73
2023/10/28 09:46:05;;;;;;;0.22;0.22;;;;;;;10.97;78.37;96168.41;5048203;28;20296;-73
2023/10/28 09:48:38;;;;;;;0.30;0.30;;;;;;;11.00;77.94;96160.72;5050095;28;20099;-73
2023/10/28 09:51:06;;;;;;;0.30;0.30;;;;;;;11.08;78.18;96167.59;5051159;28;20055;-73
2023/10/28 09:53:36;;;;;;;0.20;0.20;;;;;;;11.09;78.13;96157.72;5051518;28;20037;-73
2023/10/28 09:56:04;;;;;;;0.20;0.20;;;;;;;11.11;77.54;96156.41;5053822;28;20071;-73
2023/10/28 09:58:38;;;;;;;0.30;0.30;;;;;;;11.07;77.72;96157.94;5056406;28;20057;-74
2023/10/28 10:01:14;;;;;;;0.30;0.30;;;;;;;11.04;77.93;96150.38;5045387;28;20052;-73
2023/10/28 10:03:50;;;;;;;0.40;0.30;;;;;;;11.11;78.15;96152.97;5044985;28;20046;-74
2023/10/28 10:06:18;;;;;;;0.40;0.40;;;;;;;11.18;77.62;96145.63;5047133;28;20164;-73
2023/10/28 10:08:50;;;;;;;0.40;0.40;;;;;;;11.20;77.17;96149.69;5044731;28;20048;-74
2023/10/28 10:11:22;;;;;;;0.40;0.40;;;;;;;11.33;77.21;96146.75;5044370;28;20072;-73
2023/10/28 10:13:52;;;;;;;0.30;0.30;;;;;;;11.42;76.43;96146.41;5042769;28;20041;-73
2023/10/28 10:16:28;;;;;;;0.20;0.20;;;;;;;11.38;75.72;96146.88;5043357;28;20116;-74
2023/10/28 10:18:58;;;;;;;0.40;0.40;;;;;;;11.34;75.71;96139.56;5049027;28;20571;-73
2023/10/28 10:21:33;;;;;;;0.30;0.30;;;;;;;11.32;75.55;96153.13;5046509;28;20121;-74
2023/10/28 10:24:04;;;;;;;0.40;0.40;;;;;;;11.30;75.54;96152.59;5046816;28;20510;-73
2023/10/28 10:26:33;;;;;;;0.20;0.20;;;;;;;11.37;75.13;96160.47;5042170;28;20456;-72
2023/10/28 10:29:04;;;;;;;0.25;0.25;;;;;;;11.42;75.20;96154.44;5047031;28;20123;-73
2023/10/28 10:31:33;;;;;;;0.30;0.30;;;;;;;11.38;75.10;96152.22;5042235;28;20083;-73
2023/10/28 10:34:03;;;;;;;0.80;0.80;;;;;;;11.42;75.46;96165.91;5044512;28;20442;-73
2023/10/28 10:36:35;;;;;;;0.22;0.22;;;;;;;11.36;75.38;96154.31;5042223;28;20131;-74
2023/10/28 10:39:12;;;;;;;0.30;0.30;;;;;;;11.36;76.00;96161.50;5047490;28;20095;-74
2023/10/28 10:41:40;;;;;;;0.20;0.20;;;;;;;11.30;76.00;96159.78;5045769;28;20519;-73
2023/10/28 10:44:26;;;;;;;0.30;0.30;;;;;;;11.26;76.04;96158.63;5047018;28;20044;-73
2023/10/28 10:46:56;;;;;;;0.20;0.20;;;;;;;11.20;76.30;96156.91;5033533;28;20164;-74
2023/10/28 10:49:24;;;;;;;0.75;0.75;;;;;;;11.17;76.99;96160.84;5048560;28;20427;-73
2023/10/28 10:51:52;;;;;;;0.20;0.20;;;;;;;11.12;77.09;96146.56;5023210;28;20057;-74
2023/10/28 10:54:20;;;;;;;0.30;0.30;;;;;;;11.04;78.84;96161.88;5047411;28;20130;-73
2023/10/28 10:56:49;;;;;;;0.43;0.43;;;;;;;11.03;79.55;96156.78;5046701;28;20743;-73
2023/10/28 10:59:17;;;;;;;0.43;0.40;;;;;;;11.00;79.29;96159.94;5045006;28;20057;-74
2023/10/28 11:01:46;;;;;;;0.40;0.40;;;;;;;11.03;79.43;96154.09;5046655;28;20567;-73
2023/10/28 11:04:14;;;;;;;0.28;0.28;;;;;;;11.06;79.14;96160.84;5046535;28;20510;-74
2023/10/28 11:06:42;;;;;;;0.40;0.40;;;;;;;11.08;78.56;96156.91;5046849;28;20064;-73
2023/10/28 11:09:09;;;;;;;0.20;0.20;;;;;;;11.10;78.30;96160.16;5047391;28;20476;-73
2023/10/28 11:11:38;;;;;;;0.30;0.30;;;;;;;11.17;77.93;96158.16;5047278;28;20064;-73
2023/10/28 11:14:06;;;;;;;0.30;0.30;;;;;;;11.19;78.04;96161.44;5044965;28;20049;-74
2023/10/28 11:16:34;;;;;;;0.40;0.40;;;;;;;11.18;77.87;96164.31;5044062;28;20041;-74
2023/10/28 11:19:04;;;;;;;0.13;0.13;;;;;;;11.14;78.04;96165.81;5046879;28;20044;-73
2023/10/28 11:21:34;;;;;;;0.30;0.30;;;;;;;11.18;77.53;96161.66;5043341;28;20045;-73
2023/10/28 11:24:03;;;;;;;0.40;0.40;;;;;;;11.17;77.49;96157.34;5045315;28;20098;-74
2023/10/28 11:26:31;;;;;;;0.50;0.50;;;;;;;11.22;77.75;96158.25;5047489;28;20033;-74
2023/10/28 11:29:00;;;;;;;0.40;0.40;;;;;;;11.21;77.08;96161.19;5043564;28;20069;-73
2023/10/28 11:31:29;;;;;;;0.22;0.22;;;;;;;11.20;76.99;96149.69;5045273;28;20115;-74
2023/10/28 11:33:58;;;;;;;0.30;0.30;;;;;;;11.20;77.09;96156.91;5047134;28;20048;-73
2023/10/28 11:36:27;;;;;;;0.32;0.32;;;;;;;11.20;77.15;96144.34;5042476;28;20479;-73
2023/10/28 11:38:56;;;;;;;0.30;0.30;;;;;;;11.20;77.58;96148.88;5042110;28;20435;-74
2023/10/28 11:41:22;;;;;;;0.40;0.40;;;;;;;11.24;77.42;96147.34;5045014;28;20041;-73
2023/10/28 11:43:51;;;;;;;0.93;0.30;;;;;;;11.28;77.21;96151.19;5051552;28;20049;-73
2023/10/28 11:46:20;;;;;;;0.30;0.30;;;;;;;11.32;77.40;96153.13;5032537;28;20045;-73